Time;durP1;ratioP1;P1;durP2;ratioP2;P2;SDS_P1;SDS_P2;PMS_P1;PMS_P2;Temp;Humidity;BMP_temperature;BMP_pressure;BME280_temperature;BME280_humidity;BME280_pressure;Samples;Min_cycle;Max_cycle;Signal;HPM_P1;HPM_P2
2023/05/01 00:02:17;;;;;;;9.13;3.80;;;9.40;99.90;;;;;;5002392;28;20415;-72
2023/05/01 00:04:43;;;;;;;9.13;4.40;;;9.10;99.90;;;;;;5004387;28;20115;-73
2023/05/01 00:07:09;;;;;;;10.93;4.63;;;9.10;99.90;;;;;;4987516;28;20479;-73
2023/05/01 00:09:34;;;;;;;8.63;4.20;;;9.10;99.90;;;;;;4987115;28;20077;-73
2023/05/01 00:12:01;;;;;;;9.27;4.22;;;9.10;99.90;;;;;;5004242;28;20050;-73
2023/05/01 00:14:27;;;;;;;31.73;5.30;;;9.10;99.90;;;;;;5026493;28;20470;-73
2023/05/01 00:16:53;;;;;;;8.70;3.78;;;9.00;99.90;;;;;;5004858;28;20038;-72
2023/05/01 00:19:19;;;;;;;11.07;4.07;;;9.20;99.90;;;;;;4986889;28;20407;-73
2023/05/01 00:21:47;;;;;;;8.63;3.78;;;8.90;99.90;;;;;;5005163;28;20046;-72
2023/05/01 00:24:16;;;;;;;10.65;4.78;;;8.90;99.90;;;;;;4983171;28;20789;-73
2023/05/01 00:26:42;;;;;;;11.60;4.60;;;8.80;99.90;;;;;;5006380;28;20417;-73
2023/05/01 00:29:08;;;;;;;7.85;4.22;;;8.80;99.90;;;;;;5006728;28;20050;-72
2023/05/01 00:31:34;;;;;;;14.05;4.45;;;8.80;99.90;;;;;;4990002;28;20510;-72
2023/05/01 00:34:00;;;;;;;7.93;3.83;;;8.80;99.90;;;;;;5005071;28;20069;-73
2023/05/01 00:36:26;;;;;;;14.27;4.50;;;8.80;99.90;;;;;;5005529;28;20038;-73
2023/05/01 00:38:52;;;;;;;10.63;4.65;;;8.80;99.90;;;;;;5005498;28;20384;-73
2023/05/01 00:41:17;;;;;;;10.10;4.38;;;8.70;99.90;;;;;;5005161;28;20065;-72
2023/05/01 00:43:43;;;;;;;11.18;4.60;;;8.70;99.90;;;;;;5018130;28;20045;-72
2023/05/01 00:46:10;;;;;;;12.73;4.47;;;8.70;99.90;;;;;;5003502;28;20133;-72
2023/05/01 00:48:36;;;;;;;12.30;4.13;;;8.70;99.90;;;;;;5027115;28;20057;-79
2023/05/01 00:51:06;;;;;;;10.98;4.55;;;8.70;99.90;;;;;;5012119;28;20938;-79
2023/05/01 00:53:35;;;;;;;13.80;4.85;;;8.70;99.90;;;;;;5002134;28;20456;-79
2023/05/01 00:56:03;;;;;;;11.10;4.72;;;8.70;99.90;;;;;;5012156;28;20043;-79
2023/05/01 00:58:28;;;;;;;14.75;5.03;;;8.60;99.90;;;;;;5003945;28;20113;-79
2023/05/01 01:00:55;;;;;;;8.88;4.50;;;8.60;99.90;;;;;;5002650;28;20522;-79
2023/05/01 01:03:21;;;;;;;10.25;4.38;;;8.60;99.90;;;;;;4991320;28;20165;-80
2023/05/01 01:06:05;;;;;;;9.68;4.40;;;8.60;99.90;;;;;;5008594;28;20411;-80
2023/05/01 01:09:06;;;;;;;14.27;4.43;;;8.50;99.90;;;;;;5008093;28;20057;-79
2023/05/01 01:12:00;;;;;;;8.50;4.10;;;8.50;99.90;;;;;;4999772;28;20049;-80
2023/05/01 01:14:41;;;;;;;10.45;4.47;;;8.50;99.90;;;;;;5007250;28;20041;-80
2023/05/01 01:17:23;;;;;;;10.50;4.53;;;8.50;99.90;;;;;;4995463;28;20491;-79
2023/05/01 01:19:58;;;;;;;13.05;4.75;;;8.40;99.90;;;;;;4970948;28;20081;-79
2023/05/01 01:22:25;;;;;;;12.70;5.88;;;8.40;99.90;;;;;;4987432;28;20039;-80
2023/05/01 01:25:49;;;;;;;9.35;4.93;;;8.80;99.90;;;;;;5006602;28;20261;-81
2023/05/01 01:28:41;;;;;;;9.45;4.40;;;8.30;99.90;;;;;;5004352;28;20057;-79
2023/05/01 01:31:36;;;;;;;11.23;4.85;;;8.30;99.90;;;;;;4989784;28;20045;-79
2023/05/01 01:34:14;;;;;;;11.32;4.55;;;8.30;99.90;;;;;;5004313;28;20414;-79
2023/05/01 01:37:06;;;;;;;11.73;5.03;;;8.30;99.90;;;;;;5008834;28;20042;-79
2023/05/01 01:39:49;;;;;;;8.30;4.68;;;8.50;99.90;;;;;;4990701;28;20081;-79
2023/05/01 01:42:19;;;;;;;11.57;4.78;;;8.30;99.90;;;;;;5005910;28;20065;-81
2023/05/01 01:44:54;;;;;;;10.25;4.72;;;8.30;99.90;;;;;;5004988;28;20046;-80
2023/05/01 01:47:26;;;;;;;10.27;4.13;;;8.30;99.90;;;;;;4980261;28;20054;-80
2023/05/01 01:49:54;;;;;;;11.35;5.05;;;8.20;99.90;;;;;;4971392;28;20421;-80
2023/05/01 01:52:22;;;;;;;9.50;4.05;;;8.20;99.90;;;;;;4970308;28;20047;-80
2023/05/01 01:54:54;;;;;;;9.38;5.00;;;8.70;99.90;;;;;;5007152;28;20470;-80
2023/05/01 01:57:22;;;;;;;12.43;4.57;;;8.10;99.90;;;;;;5005324;28;20053;-80
2023/05/01 01:59:50;;;;;;;11.57;5.07;;;8.10;99.90;;;;;;5006351;28;20064;-80
2023/05/01 02:02:19;;;;;;;14.43;4.75;;;8.10;99.90;;;;;;5005292;28;20058;-79
2023/05/01 02:04:46;;;;;;;10.75;4.95;;;8.00;99.90;;;;;;4996019;28;20070;-79
2023/05/01 02:07:14;;;;;;;11.10;4.65;;;8.00;99.90;;;;;;4986103;28;20109;-79
2023/05/01 02:09:41;;;;;;;9.43;4.78;;;8.00;99.90;;;;;;4986204;28;20057;-80
2023/05/01 02:12:08;;;;;;;12.32;6.10;;;8.00;99.90;;;;;;4994330;28;20531;-80
2023/05/01 02:14:36;;;;;;;10.93;4.47;;;8.00;99.90;;;;;;4990033;28;20042;-81
2023/05/01 02:17:02;;;;;;;9.77;4.35;;;8.50;99.90;;;;;;4992262;28;20129;-80
2023/05/01 02:19:31;;;;;;;11.27;4.45;;;8.00;99.90;;;;;;4986605;28;20057;-80
2023/05/01 02:21:57;;;;;;;12.65;5.15;;;8.00;99.90;;;;;;4993755;28;20049;-79
2023/05/01 02:24:24;;;;;;;8.93;5.03;;;7.90;99.90;;;;;;5001892;28;20557;-78
2023/05/01 02:26:55;;;;;;;11.63;5.25;;;7.90;99.90;;;;;;5003754;28;20049;-79
2023/05/01 02:29:20;;;;;;;;;;;7.80;99.90;;;;;;5002542;28;20042;-80
2023/05/01 02:31:46;;;;;;;12.23;5.15;;;7.90;99.90;;;;;;4987937;28;19921;-79
2023/05/01 02:34:13;;;;;;;10.73;4.90;;;8.30;99.90;;;;;;5005693;28;20049;-80
2023/05/01 02:36:38;;;;;;;9.55;4.95;;;8.30;99.90;;;;;;5003743;28;20113;-80
2023/05/01 02:39:05;;;;;;;13.05;5.05;;;7.80;99.90;;;;;;5004826;28;20120;-79
2023/05/01 02:41:33;;;;;;;8.50;4.47;;;7.80;99.90;;;;;;5002783;28;20548;-79
2023/05/01 02:44:04;;;;;;;11.38;4.60;;;7.80;99.90;;;;;;5027546;28;20111;-80
2023/05/01 02:46:34;;;;;;;11.88;4.60;;;8.40;99.90;;;;;;5001479;28;20103;-80
2023/05/01 02:49:02;;;;;;;11.20;5.13;;;7.80;99.90;;;;;;5004711;28;20074;-79
2023/05/01 02:51:30;;;;;;;11.10;5.15;;;7.80;99.90;;;;;;4984197;28;20050;-79
2023/05/01 02:53:58;;;;;;;11.70;4.35;;;7.70;99.90;;;;;;4996129;28;20426;-79
2023/05/01 02:56:27;;;;;;;12.75;5.32;;;7.80;99.90;;;;;;5003197;28;20046;-79
2023/05/01 02:58:53;;;;;;;9.05;4.57;;;7.70;99.90;;;;;;5002230;28;20037;-79
2023/05/01 03:01:19;;;;;;;13.07;4.78;;;7.70;99.90;;;;;;5001014;28;20049;-79
2023/05/01 03:03:45;;;;;;;10.63;4.97;;;7.70;99.90;;;;;;4985748;28;20053;-79
2023/05/01 03:06:13;;;;;;;13.57;4.90;;;7.70;99.90;;;;;;4986791;28;20140;-79
2023/05/01 03:08:39;;;;;;;10.95;4.75;;;7.70;99.90;;;;;;5005787;28;20093;-79
2023/05/01 03:11:08;;;;;;;11.00;5.00;;;7.90;99.90;;;;;;5005352;28;20055;-79
2023/05/01 03:13:38;;;;;;;10.70;5.20;;;7.90;99.90;;;;;;4990185;28;20045;-79
2023/05/01 03:16:06;;;;;;;10.02;4.55;;;7.60;99.90;;;;;;5003353;28;20125;-79
2023/05/01 03:18:32;;;;;;;11.00;4.90;;;7.60;99.90;;;;;;5010271;28;20495;-79
2023/05/01 03:20:58;;;;;;;12.00;5.22;;;7.60;99.90;;;;;;5010891;28;20141;-80
2023/05/01 03:23:23;;;;;;;11.38;5.15;;;7.60;99.90;;;;;;4994368;28;20073;-80
2023/05/01 03:25:50;;;;;;;9.02;4.07;;;7.60;99.90;;;;;;5016655;28;20086;-79
2023/05/01 03:28:16;;;;;;;9.05;4.78;;;7.50;99.90;;;;;;5034832;28;20050;-79
2023/05/01 03:30:43;;;;;;;10.93;4.82;;;7.50;99.90;;;;;;5035646;28;20038;-79
2023/05/01 03:33:09;;;;;;;11.05;4.50;;;7.50;99.90;;;;;;5033959;28;20034;-79
2023/05/01 03:35:37;;;;;;;11.38;4.80;;;7.60;99.90;;;;;;5035535;28;20030;-79
2023/05/01 03:38:02;;;;;;;10.40;5.13;;;7.50;99.90;;;;;;5033270;28;20037;-79
2023/05/01 03:40:28;;;;;;;9.15;4.70;;;7.40;99.90;;;;;;5011747;28;20034;-80
2023/05/01 03:42:54;;;;;;;11.80;4.70;;;7.40;99.90;;;;;;5008697;28;20129;-79
2023/05/01 03:45:19;;;;;;;9.55;5.03;;;7.40;99.90;;;;;;5009136;28;20038;-80
2023/05/01 03:47:45;;;;;;;10.07;5.22;;;7.30;99.90;;;;;;4997751;28;20038;-79
2023/05/01 03:50:16;;;;;;;8.65;4.47;;;7.50;99.90;;;;;;5008785;28;20136;-80
2023/05/01 03:52:42;;;;;;;9.63;4.65;;;7.20;99.90;;;;;;5007793;28;20502;-80
2023/05/01 03:55:08;;;;;;;10.57;4.82;;;7.20;99.90;;;;;;5004624;28;20057;-80
2023/05/01 03:57:34;;;;;;;14.02;5.40;;;7.20;99.90;;;;;;4988375;28;20119;-80
2023/05/01 03:59:59;;;;;;;10.57;5.05;;;7.20;99.90;;;;;;5004650;28;20052;-79
2023/05/01 04:02:26;;;;;;;10.95;5.07;;;7.20;99.90;;;;;;5002773;28;20081;-80
2023/05/01 04:04:52;;;;;;;9.98;4.90;;;7.20;99.90;;;;;;5004139;28;20046;-80
2023/05/01 04:07:17;;;;;;;11.48;5.40;;;7.30;99.90;;;;;;5005284;28;20589;-80
2023/05/01 04:09:43;;;;;;;12.40;5.63;;;7.30;99.90;;;;;;5005135;28;20053;-80
2023/05/01 04:12:09;;;;;;;11.50;5.32;;;7.10;99.90;;;;;;5004135;28;20046;-81
2023/05/01 04:14:35;;;;;;;10.55;5.00;;;7.10;99.90;;;;;;4999401;28;20121;-80
2023/05/01 04:17:00;;;;;;;10.43;5.55;;;7.10;99.90;;;;;;4993030;28;20557;-81
2023/05/01 04:19:26;;;;;;;12.77;5.47;;;7.10;99.90;;;;;;5004921;28;20075;-80
2023/05/01 04:21:53;;;;;;;8.70;4.72;;;7.10;99.90;;;;;;5005878;28;20772;-80
2023/05/01 04:24:18;;;;;;;10.52;5.03;;;7.00;99.90;;;;;;5008139;28;20050;-80
2023/05/01 04:26:44;;;;;;;8.75;5.35;;;7.00;99.90;;;;;;5009795;28;20046;-81
2023/05/01 04:29:10;;;;;;;10.13;5.00;;;7.20;99.90;;;;;;4991079;28;20061;-80
2023/05/01 04:31:36;;;;;;;13.98;5.55;;;7.00;99.90;;;;;;5007293;28;20139;-80
2023/05/01 04:34:01;;;;;;;15.82;5.88;;;7.00;99.90;;;;;;5009119;28;20132;-80
2023/05/01 04:36:28;;;;;;;11.60;5.85;;;7.00;99.90;;;;;;4987341;28;20042;-80
2023/05/01 04:38:54;;;;;;;13.45;5.85;;;7.00;99.90;;;;;;5007685;28;20053;-79
2023/05/01 04:41:20;;;;;;;11.23;5.47;;;7.00;99.90;;;;;;5006045;28;20050;-79
2023/05/01 04:43:47;;;;;;;15.05;5.35;;;7.40;99.90;;;;;;4989094;28;20070;-80
2023/05/01 04:46:13;;;;;;;11.25;5.78;;;7.20;99.90;;;;;;4977275;28;20562;-80
2023/05/01 04:48:39;;;;;;;14.95;5.60;;;7.10;99.90;;;;;;5003602;28;20126;-80
2023/05/01 04:51:05;;;;;;;12.73;5.53;;;7.20;99.90;;;;;;4991516;28;20121;-80
2023/05/01 04:53:31;;;;;;;11.00;5.70;;;7.20;99.90;;;;;;4986978;28;20203;-81
2023/05/01 04:55:57;;;;;;;10.82;6.30;;;7.30;99.90;;;;;;4989718;28;20115;-80
2023/05/01 04:58:23;;;;;;;12.98;6.00;;;7.30;99.90;;;;;;5007881;28;20061;-80
2023/05/01 05:00:48;;;;;;;10.38;5.70;;;7.40;99.90;;;;;;4990490;28;20046;-81
2023/05/01 05:03:17;;;;;;;10.05;5.60;;;7.40;99.90;;;;;;5004425;28;20053;-80
2023/05/01 05:05:44;;;;;;;13.10;5.57;;;7.60;99.90;;;;;;5001735;28;20225;-80
2023/05/01 05:08:10;;;;;;;11.48;5.57;;;7.70;99.90;;;;;;4992819;28;20050;-80
2023/05/01 05:10:35;;;;;;;12.48;5.45;;;7.90;99.90;;;;;;4994776;28;20060;-80
2023/05/01 05:13:01;;;;;;;11.75;5.57;;;8.00;99.90;;;;;;4999839;28;20042;-80
2023/05/01 05:15:27;;;;;;;15.27;5.53;;;8.30;99.90;;;;;;5000509;28;20184;-81
2023/05/01 05:17:52;;;;;;;14.05;5.60;;;8.20;99.90;;;;;;4997496;28;20052;-81
2023/05/01 05:20:19;;;;;;;11.82;5.30;;;8.30;99.90;;;;;;4982893;28;20115;-80
2023/05/01 05:22:44;;;;;;;10.27;5.32;;;8.30;99.90;;;;;;5000798;28;20045;-80
2023/05/01 05:25:10;;;;;;;10.82;5.32;;;8.30;99.90;;;;;;4998212;28;20705;-79
2023/05/01 05:27:36;;;;;;;9.25;5.38;;;8.30;99.90;;;;;;4976982;28;21034;-80
2023/05/01 05:30:06;;;;;;;13.77;5.75;;;8.30;99.90;;;;;;4970685;28;20054;-80
2023/05/01 05:32:32;;;;;;;11.65;5.25;;;8.30;99.90;;;;;;4973172;28;20046;-80
2023/05/01 05:34:58;;;;;;;11.18;5.38;;;8.30;99.90;;;;;;4987743;28;20415;-80
2023/05/01 05:37:24;;;;;;;11.00;5.55;;;8.30;99.90;;;;;;4996285;28;20037;-80
2023/05/01 05:39:54;;;;;;;9.05;5.18;;;8.30;99.90;;;;;;4995544;28;20653;-80
2023/05/01 05:42:20;;;;;;;10.23;5.75;;;8.30;99.90;;;;;;4987614;28;20053;-80
2023/05/01 05:44:45;;;;;;;12.40;5.40;;;8.30;99.90;;;;;;5000130;28;20056;-80
2023/05/01 05:47:11;;;;;;;14.88;5.82;;;8.30;99.90;;;;;;5001437;28;20050;-81
2023/05/01 05:49:37;;;;;;;12.38;5.88;;;8.30;99.90;;;;;;4998485;28;20057;-80
2023/05/01 05:52:02;;;;;;;11.70;5.57;;;8.20;99.90;;;;;;4998711;28;20482;-80
2023/05/01 05:54:28;;;;;;;13.52;6.38;;;8.30;99.90;;;;;;5001497;28;20103;-80
2023/05/01 05:56:54;;;;;;;12.27;6.40;;;8.20;99.90;;;;;;5018849;28;20269;-80
2023/05/01 05:59:20;;;;;;;11.68;6.32;;;8.30;99.90;;;;;;4997556;28;20042;-80
2023/05/01 06:01:46;;;;;;;14.13;6.80;;;8.30;99.90;;;;;;5003340;28;20121;-79
2023/05/01 06:04:13;;;;;;;13.18;6.40;;;8.30;99.90;;;;;;5001776;28;20069;-79
2023/05/01 06:06:39;;;;;;;10.20;5.90;;;8.30;99.90;;;;;;5003145;28;20050;-77
2023/05/01 06:09:06;;;;;;;11.80;6.50;;;8.30;99.90;;;;;;4989114;28;20042;-78
2023/05/01 06:11:32;;;;;;;12.68;6.40;;;8.30;99.90;;;;;;5023330;28;20038;-78
2023/05/01 06:13:59;;;;;;;10.38;6.22;;;8.60;99.90;;;;;;5023183;28;20072;-79
2023/05/01 06:16:24;;;;;;;12.05;6.32;;;8.40;99.90;;;;;;5024382;28;20054;-79
2023/05/01 06:18:51;;;;;;;13.38;6.45;;;8.50;99.90;;;;;;5009613;28;20054;-80
2023/05/01 06:21:17;;;;;;;11.82;6.88;;;8.50;99.90;;;;;;5024368;28;20049;-79
2023/05/01 06:23:42;;;;;;;13.32;6.80;;;8.50;99.90;;;;;;5006664;28;20631;-81
2023/05/01 06:26:08;;;;;;;14.65;6.93;;;8.50;99.90;;;;;;5005078;28;20046;-78
2023/05/01 06:28:34;;;;;;;11.13;6.28;;;8.70;99.90;;;;;;5004448;28;20145;-81
2023/05/01 06:31:00;;;;;;;14.43;6.50;;;8.80;99.90;;;;;;5005407;28;20129;-79
2023/05/01 06:33:25;;;;;;;14.05;6.60;;;9.20;99.90;;;;;;4997093;28;20156;-80
2023/05/01 06:35:53;;;;;;;15.43;6.32;;;9.00;99.90;;;;;;4997403;28;20073;-79
2023/05/01 06:38:19;;;;;;;13.38;6.30;;;9.00;99.90;;;;;;4981672;28;20541;-79
2023/05/01 06:40:47;;;;;;;12.25;5.85;;;9.10;99.90;;;;;;4994039;28;20042;-80
2023/05/01 06:43:13;;;;;;;12.90;5.90;;;9.20;99.90;;;;;;4998154;28;21026;-79
2023/05/01 06:45:40;;;;;;;15.80;6.35;;;9.30;99.90;;;;;;5004349;28;20072;-79
2023/05/01 06:48:05;;;;;;;10.77;5.85;;;9.40;99.90;;;;;;4986667;28;20076;-79
2023/05/01 06:50:31;;;;;;;11.57;5.88;;;9.80;99.90;;;;;;5000507;28;20124;-79
2023/05/01 06:52:59;;;;;;;15.48;5.85;;;9.60;99.90;;;;;;5001016;28;20038;-79
2023/05/01 06:55:25;;;;;;;12.13;5.47;;;9.70;99.90;;;;;;4992808;28;20116;-79
2023/05/01 06:57:51;;;;;;;11.73;5.15;;;9.80;99.90;;;;;;4998553;28;20049;-80
2023/05/01 07:00:17;;;;;;;11.65;5.50;;;9.90;99.90;;;;;;4999332;28;20053;-79
2023/05/01 07:02:46;;;;;;;13.05;5.35;;;10.00;99.90;;;;;;4996775;28;20057;-79
2023/05/01 07:05:12;;;;;;;12.63;5.50;;;10.10;99.90;;;;;;4994466;28;20120;-79
2023/05/01 07:07:38;;;;;;;13.13;5.00;;;10.10;99.90;;;;;;5002183;28;20458;-79
2023/05/01 07:10:04;;;;;;;11.90;5.18;;;10.20;99.90;;;;;;4995403;28;20042;-79
2023/05/01 07:12:30;;;;;;;13.00;5.03;;;10.30;99.90;;;;;;5002327;28;20543;-79
2023/05/01 07:14:56;;;;;;;16.13;5.30;;;10.30;99.90;;;;;;4996311;28;20038;-79
2023/05/01 07:17:21;;;;;;;12.13;4.53;;;10.40;99.90;;;;;;4999041;28;20056;-78
2023/05/01 07:19:48;;;;;;;9.23;4.32;;;10.40;99.90;;;;;;4995754;28;20097;-78
2023/05/01 07:22:15;;;;;;;13.70;4.72;;;10.50;99.90;;;;;;4999257;28;20046;-78
2023/05/01 07:24:40;;;;;;;11.60;4.88;;;10.60;99.90;;;;;;5003354;28;20058;-79
2023/05/01 07:27:06;;;;;;;11.25;4.60;;;10.70;99.90;;;;;;5004793;28;20149;-78
2023/05/01 07:29:32;;;;;;;10.85;4.32;;;10.70;99.90;;;;;;4985927;28;20046;-78
2023/05/01 07:31:58;;;;;;;12.38;4.57;;;10.90;99.90;;;;;;4985880;28;20038;-78
2023/05/01 07:34:23;;;;;;;12.85;4.05;;;11.00;99.90;;;;;;5004940;28;20495;-78
2023/05/01 07:36:49;;;;;;;12.15;3.85;;;11.10;99.90;;;;;;4986670;28;20034;-79
2023/05/01 07:39:16;;;;;;;12.13;4.13;;;11.50;99.90;;;;;;4998655;28;20054;-79
2023/05/01 07:41:42;;;;;;;13.05;3.80;;;11.30;99.90;;;;;;5004592;28;20050;-78
2023/05/01 07:44:08;;;;;;;12.07;3.85;;;11.40;99.90;;;;;;4993597;28;20601;-78
2023/05/01 07:46:35;;;;;;;11.45;3.85;;;11.50;99.90;;;;;;4992196;28;20041;-79
2023/05/01 07:49:02;;;;;;;9.02;3.33;;;11.60;99.90;;;;;;4975727;28;20835;-78
2023/05/01 07:51:28;;;;;;;9.57;3.38;;;11.70;99.90;;;;;;4993047;28;20050;-78
2023/05/01 07:53:53;;;;;;;11.77;3.55;;;11.80;99.90;;;;;;5003623;28;20434;-78
2023/05/01 07:56:20;;;;;;;11.18;3.15;;;12.00;99.90;;;;;;5002419;28;20049;-78
2023/05/01 07:58:45;;;;;;;11.70;3.72;;;12.00;99.90;;;;;;5001749;28;20483;-78
2023/05/01 08:01:12;;;;;;;10.50;3.53;;;12.20;99.90;;;;;;4985003;28;20129;-78
2023/05/01 08:03:37;;;;;;;9.88;3.63;;;12.30;99.90;;;;;;4981338;28;20172;-78
2023/05/01 08:06:04;;;;;;;12.82;3.95;;;12.40;99.90;;;;;;4980183;28;20047;-78
2023/05/01 08:08:30;;;;;;;8.30;3.38;;;12.50;99.90;;;;;;4992972;28;20133;-78
2023/05/01 08:10:55;;;;;;;9.90;3.55;;;12.60;99.90;;;;;;4999288;28;20045;-78
2023/05/01 08:13:21;;;;;;;9.05;3.80;;;12.70;99.90;;;;;;4987236;28;20124;-78
2023/05/01 08:15:47;;;;;;;11.50;4.15;;;12.70;99.90;;;;;;4988929;28;20402;-77
2023/05/01 08:18:19;;;;;;;12.13;4.00;;;12.90;99.90;;;;;;4998388;28;20104;-77
2023/05/01 08:20:49;;;;;;;11.82;4.43;;;12.90;99.90;;;;;;4983840;28;20147;-78
2023/05/01 08:23:17;;;;;;;10.40;3.42;;;13.10;99.90;;;;;;4994290;28;20058;-78
2023/05/01 08:25:45;;;;;;;9.32;3.58;;;13.20;99.90;;;;;;5000471;28;20630;-77
2023/05/01 08:28:13;;;;;;;10.75;4.18;;;13.40;99.90;;;;;;4992961;28;20046;-77
2023/05/01 08:30:39;;;;;;;12.60;3.70;;;13.50;99.90;;;;;;4982942;28;20054;-77
2023/05/01 08:33:04;;;;;;;13.02;3.67;;;13.60;99.90;;;;;;4980029;28;20038;-78
2023/05/01 08:35:30;;;;;;;11.27;4.70;;;13.70;99.90;;;;;;4994073;28;20568;-77
2023/05/01 08:37:56;;;;;;;11.68;4.00;;;13.80;99.90;;;;;;4995642;28;20034;-77
2023/05/01 08:40:24;;;;;;;8.98;3.58;;;13.90;99.90;;;;;;4995345;28;20053;-77
2023/05/01 08:42:50;;;;;;;9.27;3.85;;;14.00;99.90;;;;;;5008947;28;20042;-75
2023/05/01 08:45:19;;;;;;;9.68;3.55;;;14.00;99.90;;;;;;5018187;28;20045;-77
2023/05/01 08:47:45;;;;;;;8.50;3.42;;;14.10;99.90;;;;;;5018348;28;20076;-77
2023/05/01 08:50:12;;;;;;;13.40;3.88;;;14.20;99.90;;;;;;5016411;28;20054;-77
2023/05/01 08:52:42;;;;;;;9.20;3.60;;;14.30;99.90;;;;;;5012312;28;20054;-78
2023/05/01 08:55:13;;;;;;;9.18;3.65;;;14.30;99.90;;;;;;5012796;28;20871;-78
2023/05/01 08:57:46;;;;;;;10.30;3.97;;;14.40;99.90;;;;;;5005220;28;20137;-77
2023/05/01 09:00:20;;;;;;;8.43;3.78;;;14.50;99.90;;;;;;5002234;28;20498;-77
2023/05/01 09:02:47;;;;;;;10.50;3.55;;;14.50;99.90;;;;;;5004002;28;20062;-78
2023/05/01 09:05:17;;;;;;;9.88;3.75;;;14.50;99.90;;;;;;5006868;28;20498;-79
2023/05/01 09:07:45;;;;;;;8.85;4.07;;;14.60;99.90;;;;;;4999642;28;20400;-79
2023/05/01 09:10:20;;;;;;;8.98;3.50;;;14.60;99.90;;;;;;4983021;28;20034;-77
2023/05/01 09:12:56;;;;;;;10.10;3.75;;;14.70;99.90;;;;;;5001160;28;20096;-77
2023/05/01 09:15:24;;;;;;;11.20;3.72;;;14.80;99.90;;;;;;5004508;28;20050;-78
2023/05/01 09:17:50;;;;;;;10.18;3.20;;;14.80;99.90;;;;;;5002304;28;20049;-78
2023/05/01 09:20:18;;;;;;;10.10;4.10;;;14.90;99.90;;;;;;4999092;28;20068;-77
2023/05/01 09:22:43;;;;;;;10.48;3.67;;;15.00;99.90;;;;;;5002150;28;20049;-77
2023/05/01 09:25:09;;;;;;;8.48;3.20;;;15.00;99.90;;;;;;5005708;28;20040;-77
2023/05/01 09:27:36;;;;;;;8.18;3.40;;;15.00;99.90;;;;;;5001017;28;20058;-77
2023/05/01 09:30:04;;;;;;;9.60;3.83;;;15.10;99.90;;;;;;4983036;28;20503;-76
2023/05/01 09:32:30;;;;;;;8.75;3.28;;;15.20;99.90;;;;;;4999636;28;20086;-74
2023/05/01 09:35:13;;;;;;;8.43;3.72;;;15.20;99.90;;;;;;5004720;28;20055;-75
2023/05/01 09:37:40;;;;;;;11.18;3.65;;;15.30;99.90;;;;;;5006772;28;20053;-75
2023/05/01 09:40:13;;;;;;;9.05;3.50;;;15.30;99.90;;;;;;4987016;28;20034;-75
2023/05/01 09:42:53;;;;;;;8.00;2.80;;;15.30;99.90;;;;;;4993007;28;20806;-76
2023/05/01 09:45:19;;;;;;;9.05;3.58;;;15.40;99.90;;;;;;5000137;28;20132;-77
2023/05/01 09:47:46;;;;;;;8.55;3.50;;;15.40;99.90;;;;;;5005820;28;20148;-76
2023/05/01 09:50:29;;;;;;;6.90;2.65;;;15.40;99.90;;;;;;5001419;28;20046;-75
2023/05/01 09:52:55;;;;;;;8.10;2.97;;;15.50;99.90;;;;;;4983265;28;20064;-77
2023/05/01 09:55:22;;;;;;;8.88;3.40;;;15.50;99.90;;;;;;5001008;28;20045;-77
2023/05/01 09:57:48;;;;;;;7.70;2.70;;;15.50;99.90;;;;;;4986741;28;20628;-78
2023/05/01 10:00:15;;;;;;;7.18;2.72;;;15.60;99.90;;;;;;4999018;28;20053;-77
2023/05/01 10:02:43;;;;;;;8.07;2.45;;;15.60;99.90;;;;;;4999758;28;20062;-76
2023/05/01 10:05:09;;;;;;;9.30;2.65;;;15.60;99.90;;;;;;5003151;28;20457;-77
2023/05/01 10:07:35;;;;;;;9.48;2.53;;;15.70;99.90;;;;;;5002044;28;20060;-77
2023/05/01 10:10:27;;;;;;;9.73;2.60;;;15.70;99.90;;;;;;4986995;28;20067;-77
2023/05/01 10:12:54;;;;;;;8.63;2.53;;;15.70;99.90;;;;;;4998396;28;20053;-78
2023/05/01 10:15:20;;;;;;;7.78;2.17;;;15.70;99.90;;;;;;5000756;28;20073;-75
2023/05/01 10:17:48;;;;;;;6.80;1.83;;;15.80;99.90;;;;;;5004151;28;20054;-74
2023/05/01 10:20:14;;;;;;;5.65;1.92;;;15.80;99.90;;;;;;5000612;28;20125;-75
2023/05/01 10:22:40;;;;;;;5.60;1.92;;;15.90;99.90;;;;;;4982533;28;21635;-75
2023/05/01 10:25:11;;;;;;;9.60;2.63;;;16.00;99.90;;;;;;5008227;28;20594;-76
2023/05/01 10:27:39;;;;;;;8.27;2.03;;;16.10;99.90;;;;;;5003600;28;20506;-74
2023/05/01 10:30:06;;;;;;;7.13;2.08;;;16.10;99.90;;;;;;5006127;28;20100;-75
2023/05/01 10:32:32;;;;;;;7.28;2.00;;;16.20;99.90;;;;;;4989567;28;20042;-75
2023/05/01 10:35:03;;;;;;;6.97;2.13;;;16.30;99.90;;;;;;5005514;28;20529;-75
2023/05/01 10:37:33;;;;;;;6.00;2.00;;;16.30;99.90;;;;;;5006367;28;20056;-74
2023/05/01 10:39:58;;;;;;;4.05;1.85;;;16.30;99.90;;;;;;4986144;28;20507;-74
2023/05/01 10:42:25;;;;;;;5.85;1.70;;;16.40;99.90;;;;;;5001668;28;20095;-74
2023/05/01 10:44:50;;;;;;;7.55;1.95;;;16.40;99.90;;;;;;5002405;28;20573;-77
2023/05/01 10:47:30;;;;;;;5.75;1.83;;;16.40;99.90;;;;;;5002542;28;20037;-74
2023/05/01 10:50:06;;;;;;;5.95;1.80;;;16.50;99.90;;;;;;5002083;28;20411;-75
2023/05/01 10:53:13;;;;;;;6.95;1.80;;;16.50;99.90;;;;;;5000743;28;20044;-75
2023/05/01 10:55:43;;;;;;;4.70;1.70;;;16.50;99.90;;;;;;4984420;28;20111;-76
2023/05/01 10:58:33;;;;;;;7.38;1.80;;;16.60;99.90;;;;;;5005216;28;20042;-75
2023/05/01 11:01:27;;;;;;;6.35;2.17;;;16.60;99.90;;;;;;4985291;28;20041;-75
2023/05/01 11:03:55;;;;;;;4.82;1.52;;;16.70;99.90;;;;;;4985278;28;20049;-74
2023/05/01 11:06:21;;;;;;;5.50;1.80;;;16.70;99.90;;;;;;5004680;28;20042;-78
2023/05/01 11:08:47;;;;;;;6.47;1.67;;;16.70;99.90;;;;;;5004379;28;20473;-76
2023/05/01 11:11:18;;;;;;;5.45;1.50;;;16.70;99.30;;;;;;5002192;28;20113;-74
2023/05/01 11:14:01;;;;;;;6.05;1.35;;;16.80;99.90;;;;;;5004328;28;20526;-75
2023/05/01 11:16:42;;;;;;;6.88;2.03;;;16.80;99.90;;;;;;5003636;28;20053;-75
2023/05/01 11:19:39;;;;;;;4.80;1.42;;;16.80;99.90;;;;;;4996385;28;20088;-74
2023/05/01 11:22:12;;;;;;;4.22;1.67;;;16.90;99.90;;;;;;5001826;28;20112;-76
2023/05/01 11:24:38;;;;;;;5.28;2.00;;;17.00;99.90;;;;;;5003637;28;20069;-76
2023/05/01 11:27:05;;;;;;;5.07;1.92;;;17.00;99.90;;;;;;4988073;28;20054;-76
2023/05/01 11:29:33;;;;;;;8.60;1.80;;;17.10;99.90;;;;;;4980382;28;20415;-75
2023/05/01 11:32:00;;;;;;;3.33;1.50;;;17.10;99.90;;;;;;5006421;28;20052;-74
2023/05/01 11:34:25;;;;;;;6.32;1.90;;;17.10;99.90;;;;;;5007981;28;20046;-77
2023/05/01 11:36:52;;;;;;;8.82;2.17;;;17.10;99.90;;;;;;5009324;28;20045;-77
2023/05/01 11:39:18;;;;;;;5.53;1.67;;;17.20;99.90;;;;;;5006418;28;20057;-76
2023/05/01 11:41:45;;;;;;;5.07;1.70;;;17.20;99.90;;;;;;5008542;28;20045;-76
2023/05/01 11:44:12;;;;;;;9.48;2.45;;;17.20;99.90;;;;;;5006363;28;20514;-78
2023/05/01 11:46:38;;;;;;;7.85;2.40;;;17.20;99.90;;;;;;5008344;28;20050;-77
2023/05/01 11:49:04;;;;;;;6.78;2.50;;;17.20;99.90;;;;;;4990722;28;20069;-78
2023/05/01 11:51:30;;;;;;;6.65;2.50;;;17.20;99.90;;;;;;5006690;28;20096;-77
2023/05/01 11:54:03;;;;;;;6.00;1.98;;;17.20;99.90;;;;;;5007351;28;20034;-76
2023/05/01 11:56:30;;;;;;;6.43;2.40;;;17.20;99.90;;;;;;5008846;28;20038;-78
2023/05/01 11:58:58;;;;;;;5.80;2.45;;;17.30;99.90;;;;;;5003239;28;20097;-78
2023/05/01 12:01:37;;;;;;;6.75;2.42;;;17.30;99.90;;;;;;4990732;28;20399;-76
2023/05/01 12:04:04;;;;;;;6.38;2.20;;;17.30;99.90;;;;;;5006683;28;20128;-76
2023/05/01 12:06:46;;;;;;;6.28;1.95;;;17.40;99.90;;;;;;4990246;28;20487;-78
2023/05/01 12:09:17;;;;;;;7.30;2.15;;;17.40;99.90;;;;;;5002061;28;20050;-78
2023/05/01 12:11:45;;;;;;;6.97;2.45;;;17.30;99.90;;;;;;5007471;28;20522;-76
2023/05/01 12:14:13;;;;;;;6.13;2.13;;;17.20;99.20;;;;;;5007662;28;20050;-77
2023/05/01 12:16:39;;;;;;;5.47;2.08;;;17.20;98.60;;;;;;4991823;28;20535;-77
2023/05/01 12:19:06;;;;;;;8.55;2.58;;;17.10;97.40;;;;;;5006735;28;20061;-76
2023/05/01 12:21:32;;;;;;;9.60;2.42;;;17.00;98.10;;;;;;4999239;28;20054;-76
2023/05/01 12:24:09;;;;;;;6.75;1.98;;;17.00;99.30;;;;;;5007022;28;20111;-76
2023/05/01 12:26:35;;;;;;;4.65;1.95;;;16.90;98.90;;;;;;5006779;28;20097;-77
2023/05/01 12:29:06;;;;;;;6.50;2.10;;;16.90;99.30;;;;;;5004284;28;20042;-77
2023/05/01 12:31:32;;;;;;;;;;;16.90;99.90;;;;;;5003863;28;20478;-77
2023/05/01 12:34:02;;;;;;;5.97;2.40;;;16.90;99.20;;;;;;5007135;28;19980;-75
2023/05/01 12:36:30;;;;;;;8.07;2.63;;;16.90;99.90;;;;;;4990332;28;20553;-76
2023/05/01 12:39:02;;;;;;;8.25;2.40;;;17.00;99.90;;;;;;5006160;28;20054;-76
2023/05/01 12:41:53;;;;;;;6.50;2.10;;;17.00;99.90;;;;;;5004669;28;20485;-77
2023/05/01 12:44:21;;;;;;;6.18;2.20;;;17.00;99.90;;;;;;4997783;28;20046;-75
2023/05/01 12:47:07;;;;;;;4.93;1.90;;;17.10;99.90;;;;;;5010515;28;20053;-76
2023/05/01 12:49:37;;;;;;;5.07;1.80;;;17.10;99.90;;;;;;5002388;28;20053;-76
2023/05/01 12:52:05;;;;;;;8.65;2.00;;;17.10;99.90;;;;;;5005697;28;20774;-75
2023/05/01 12:54:38;;;;;;;5.13;2.05;;;17.10;99.90;;;;;;4989397;28;20045;-75
2023/05/01 12:57:09;;;;;;;9.23;2.22;;;17.10;99.90;;;;;;5005155;28;20531;-75